sensor_id;sensor_type;location;lat;lon;timestamp;P1;durP1;ratioP1;P2;durP2;ratioP2
68507;SDS011;55510;49.560;19.090;2023-02-01T00:02:56;5.17;;;2.10;;
68507;SDS011;55510;49.560;19.090;2023-02-01T00:05:57;7.07;;;2.10;;
68507;SDS011;55510;49.560;19.090;2023-02-01T00:08:59;6.00;;;1.73;;
68507;SDS011;55510;49.560;19.090;2023-02-01T00:11:59;4.97;;;1.93;;
68507;SDS011;55510;49.560;19.090;2023-02-01T00:15:02;5.90;;;2.20;;
68507;SDS011;55510;49.560;19.090;2023-02-01T00:18:03;6.17;;;2.37;;
68507;SDS011;55510;49.560;19.090;2023-02-01T00:21:04;6.13;;;2.33;;
68507;SDS011;55510;49.560;19.090;2023-02-01T00:24:05;5.03;;;1.43;;
68507;SDS011;55510;49.560;19.090;2023-02-01T00:27:06;6.93;;;2.07;;
68507;SDS011;55510;49.560;19.090;2023-02-01T00:30:07;11.65;;;5.47;;
68507;SDS011;55510;49.560;19.090;2023-02-01T00:33:08;7.40;;;2.00;;
68507;SDS011;55510;49.560;19.090;2023-02-01T00:36:09;3.70;;;1.50;;
68507;SDS011;55510;49.560;19.090;2023-02-01T00:39:10;5.30;;;2.13;;
68507;SDS011;55510;49.560;19.090;2023-02-01T00:42:11;6.93;;;2.43;;
68507;SDS011;55510;49.560;19.090;2023-02-01T00:45:12;5.00;;;1.83;;
68507;SDS011;55510;49.560;19.090;2023-02-01T00:48:13;4.60;;;1.80;;
68507;SDS011;55510;49.560;19.090;2023-02-01T00:51:15;4.10;;;1.60;;
68507;SDS011;55510;49.560;19.090;2023-02-01T00:54:17;3.38;;;1.05;;
68507;SDS011;55510;49.560;19.090;2023-02-01T00:57:18;5.43;;;1.40;;
68507;SDS011;55510;49.560;19.090;2023-02-01T01:00:19;3.28;;;1.10;;
68507;SDS011;55510;49.560;19.090;2023-02-01T01:03:20;4.13;;;1.83;;
68507;SDS011;55510;49.560;19.090;2023-02-01T01:06:22;3.73;;;0.80;;
68507;SDS011;55510;49.560;19.090;2023-02-01T01:09:24;2.42;;;0.68;;
68507;SDS011;55510;49.560;19.090;2023-02-01T01:12:24;4.40;;;0.97;;
68507;SDS011;55510;49.560;19.090;2023-02-01T01:15:25;3.45;;;1.08;;
68507;SDS011;55510;49.560;19.090;2023-02-01T01:18:26;7.70;;;4.00;;
68507;SDS011;55510;49.560;19.090;2023-02-01T01:21:27;6.13;;;1.88;;
68507;SDS011;55510;49.560;19.090;2023-02-01T01:24:28;5.67;;;1.20;;
68507;SDS011;55510;49.560;19.090;2023-02-01T01:27:29;4.47;;;1.20;;
68507;SDS011;55510;49.560;19.090;2023-02-01T01:30:29;4.77;;;1.97;;
68507;SDS011;55510;49.560;19.090;2023-02-01T01:33:30;4.57;;;1.40;;
68507;SDS011;55510;49.560;19.090;2023-02-01T01:36:31;6.90;;;2.70;;
68507;SDS011;55510;49.560;19.090;2023-02-01T01:39:31;4.07;;;1.75;;
68507;SDS011;55510;49.560;19.090;2023-02-01T01:42:50;5.97;;;2.07;;
68507;SDS011;55510;49.560;19.090;2023-02-01T01:45:54;3.60;;;0.82;;
68507;SDS011;55510;49.560;19.090;2023-02-01T01:52:15;3.17;;;0.88;;
68507;SDS011;55510;49.560;19.090;2023-02-01T01:55:18;3.50;;;1.30;;
68507;SDS011;55510;49.560;19.090;2023-02-01T01:58:21;6.73;;;2.40;;
68507;SDS011;55510;49.560;19.090;2023-02-01T02:01:25;3.25;;;1.00;;
68507;SDS011;55510;49.560;19.090;2023-02-01T02:04:26;6.10;;;2.70;;
68507;SDS011;55510;49.560;19.090;2023-02-01T02:07:28;2.72;;;0.75;;
68507;SDS011;55510;49.560;19.090;2023-02-01T02:10:32;3.97;;;0.98;;
68507;SDS011;55510;49.560;19.090;2023-02-01T02:13:52;6.03;;;2.43;;
68507;SDS011;55510;49.560;19.090;2023-02-01T02:36:23;5.30;;;1.85;;
68507;SDS011;55510;49.560;19.090;2023-02-01T02:46:24;1.58;;;0.20;;
68507;SDS011;55510;49.560;19.090;2023-02-01T02:50:19;1.48;;;0.20;;
68507;SDS011;55510;49.560;19.090;2023-02-01T02:57:36;1.33;;;0.20;;
68507;SDS011;55510;49.560;19.090;2023-02-01T03:00:59;2.93;;;0.70;;
68507;SDS011;55510;49.560;19.090;2023-02-01T03:04:19;3.00;;;0.60;;
68507;SDS011;55510;49.560;19.090;2023-02-01T03:10:54;2.88;;;1.05;;
68507;SDS011;55510;49.560;19.090;2023-02-01T03:14:00;6.65;;;1.67;;
68507;SDS011;55510;49.560;19.090;2023-02-01T03:17:17;6.30;;;2.60;;
68507;SDS011;55510;49.560;19.090;2023-02-01T03:20:22;3.10;;;1.08;;
68507;SDS011;55510;49.560;19.090;2023-02-01T03:23:26;3.42;;;0.57;;
68507;SDS011;55510;49.560;19.090;2023-02-01T03:26:30;4.50;;;0.65;;
68507;SDS011;55510;49.560;19.090;2023-02-01T03:29:40;3.78;;;0.93;;
68507;SDS011;55510;49.560;19.090;2023-02-01T03:32:55;4.90;;;0.63;;
68507;SDS011;55510;49.560;19.090;2023-02-01T03:36:11;7.88;;;2.13;;
68507;SDS011;55510;49.560;19.090;2023-02-01T03:42:37;5.55;;;0.80;;
68507;SDS011;55510;49.560;19.090;2023-02-01T03:45:42;3.10;;;0.50;;
68507;SDS011;55510;49.560;19.090;2023-02-01T03:48:46;4.70;;;0.70;;
68507;SDS011;55510;49.560;19.090;2023-02-01T03:51:48;8.27;;;0.50;;
68507;SDS011;55510;49.560;19.090;2023-02-01T03:54:51;2.80;;;0.68;;
68507;SDS011;55510;49.560;19.090;2023-02-01T03:57:55;5.63;;;1.33;;
68507;SDS011;55510;49.560;19.090;2023-02-01T04:00:59;4.30;;;1.08;;
68507;SDS011;55510;49.560;19.090;2023-02-01T04:04:00;4.13;;;1.00;;
68507;SDS011;55510;49.560;19.090;2023-02-01T04:07:01;5.22;;;1.27;;
68507;SDS011;55510;49.560;19.090;2023-02-01T04:10:02;5.00;;;1.25;;
68507;SDS011;55510;49.560;19.090;2023-02-01T04:13:03;5.17;;;1.67;;
68507;SDS011;55510;49.560;19.090;2023-02-01T04:16:04;5.30;;;1.85;;
68507;SDS011;55510;49.560;19.090;2023-02-01T04:19:05;4.00;;;0.50;;
68507;SDS011;55510;49.560;19.090;2023-02-01T04:22:06;5.93;;;2.20;;
68507;SDS011;55510;49.560;19.090;2023-02-01T04:25:07;10.53;;;2.60;;
68507;SDS011;55510;49.560;19.090;2023-02-01T04:28:08;5.10;;;1.17;;
68507;SDS011;55510;49.560;19.090;2023-02-01T04:31:09;6.05;;;1.20;;
68507;SDS011;55510;49.560;19.090;2023-02-01T04:34:10;3.60;;;0.60;;
68507;SDS011;55510;49.560;19.090;2023-02-01T04:37:10;4.30;;;1.00;;
68507;SDS011;55510;49.560;19.090;2023-02-01T04:40:11;4.23;;;0.90;;
68507;SDS011;55510;49.560;19.090;2023-02-01T04:43:16;3.72;;;0.68;;
68507;SDS011;55510;49.560;19.090;2023-02-01T04:46:17;3.60;;;0.88;;
68507;SDS011;55510;49.560;19.090;2023-02-01T04:49:18;8.48;;;3.88;;
68507;SDS011;55510;49.560;19.090;2023-02-01T04:52:21;16.60;;;7.50;;
68507;SDS011;55510;49.560;19.090;2023-02-01T04:55:22;39.05;;;13.23;;
68507;SDS011;55510;49.560;19.090;2023-02-01T04:58:22;36.23;;;12.90;;
68507;SDS011;55510;49.560;19.090;2023-02-01T05:01:23;9.57;;;2.85;;
68507;SDS011;55510;49.560;19.090;2023-02-01T05:04:27;8.50;;;3.03;;
68507;SDS011;55510;49.560;19.090;2023-02-01T05:07:27;6.73;;;3.07;;
68507;SDS011;55510;49.560;19.090;2023-02-01T05:10:28;7.10;;;1.80;;
68507;SDS011;55510;49.560;19.090;2023-02-01T05:13:29;5.83;;;1.10;;
68507;SDS011;55510;49.560;19.090;2023-02-01T05:16:49;2.30;;;0.20;;
68507;SDS011;55510;49.560;19.090;2023-02-01T05:19:49;3.40;;;0.52;;
68507;SDS011;55510;49.560;19.090;2023-02-01T05:22:50;5.30;;;0.43;;
68507;SDS011;55510;49.560;19.090;2023-02-01T05:25:51;3.45;;;0.20;;
68507;SDS011;55510;49.560;19.090;2023-02-01T05:28:51;5.40;;;0.73;;
68507;SDS011;55510;49.560;19.090;2023-02-01T05:31:52;6.40;;;2.40;;
68507;SDS011;55510;49.560;19.090;2023-02-01T05:34:53;7.90;;;3.72;;
68507;SDS011;55510;49.560;19.090;2023-02-01T05:37:53;6.97;;;1.70;;
68507;SDS011;55510;49.560;19.090;2023-02-01T05:40:54;11.27;;;5.00;;
68507;SDS011;55510;49.560;19.090;2023-02-01T05:43:55;10.03;;;3.53;;
68507;SDS011;55510;49.560;19.090;2023-02-01T05:46:56;5.13;;;1.42;;
68507;SDS011;55510;49.560;19.090;2023-02-01T05:49:57;5.37;;;1.50;;
68507;SDS011;55510;49.560;19.090;2023-02-01T05:52:58;2.40;;;0.60;;
68507;SDS011;55510;49.560;19.090;2023-02-01T05:55:59;3.50;;;0.70;;
68507;SDS011;55510;49.560;19.090;2023-02-01T05:59:00;6.40;;;2.10;;
68507;SDS011;55510;49.560;19.090;2023-02-01T06:02:01;10.00;;;2.42;;
68507;SDS011;55510;49.560;19.090;2023-02-01T06:05:01;15.53;;;5.40;;
68507;SDS011;55510;49.560;19.090;2023-02-01T06:08:02;8.27;;;2.72;;
68507;SDS011;55510;49.560;19.090;2023-02-01T06:11:03;4.90;;;1.60;;
68507;SDS011;55510;49.560;19.090;2023-02-01T06:14:05;7.95;;;2.08;;
68507;SDS011;55510;49.560;19.090;2023-02-01T06:17:07;9.18;;;1.60;;
68507;SDS011;55510;49.560;19.090;2023-02-01T06:20:09;11.43;;;2.23;;
68507;SDS011;55510;49.560;19.090;2023-02-01T06:23:10;5.82;;;1.38;;
68507;SDS011;55510;49.560;19.090;2023-02-01T06:26:11;7.40;;;1.38;;
68507;SDS011;55510;49.560;19.090;2023-02-01T06:29:12;6.57;;;1.27;;
68507;SDS011;55510;49.560;19.090;2023-02-01T06:32:13;4.15;;;1.00;;
68507;SDS011;55510;49.560;19.090;2023-02-01T06:35:13;7.90;;;1.33;;
68507;SDS011;55510;49.560;19.090;2023-02-01T06:38:16;5.25;;;1.50;;
68507;SDS011;55510;49.560;19.090;2023-02-01T06:41:20;6.65;;;2.47;;
68507;SDS011;55510;49.560;19.090;2023-02-01T06:44:21;8.00;;;1.73;;
68507;SDS011;55510;49.560;19.090;2023-02-01T06:47:21;8.80;;;2.63;;
68507;SDS011;55510;49.560;19.090;2023-02-01T06:50:22;13.13;;;3.27;;
68507;SDS011;55510;49.560;19.090;2023-02-01T12:42:10;11.60;;;5.63;;
68507;SDS011;55510;49.560;19.090;2023-02-01T12:51:58;24.08;;;13.40;;
68507;SDS011;55510;49.560;19.090;2023-02-01T12:58:45;11.60;;;4.53;;
68507;SDS011;55510;49.560;19.090;2023-02-01T13:01:53;12.37;;;5.33;;
68507;SDS011;55510;49.560;19.090;2023-02-01T13:08:23;22.58;;;8.82;;
68507;SDS011;55510;49.560;19.090;2023-02-01T13:11:34;13.30;;;4.90;;
68507;SDS011;55510;49.560;19.090;2023-02-01T13:14:46;17.83;;;7.10;;
68507;SDS011;55510;49.560;19.090;2023-02-01T13:17:54;23.57;;;10.60;;
68507;SDS011;55510;49.560;19.090;2023-02-01T13:21:02;32.42;;;14.63;;
68507;SDS011;55510;49.560;19.090;2023-02-01T13:24:14;23.42;;;9.55;;
68507;SDS011;55510;49.560;19.090;2023-02-01T13:27:31;23.30;;;10.27;;
68507;SDS011;55510;49.560;19.090;2023-02-01T13:30:37;38.13;;;14.60;;
68507;SDS011;55510;49.560;19.090;2023-02-01T13:33:58;34.73;;;14.30;;
68507;SDS011;55510;49.560;19.090;2023-02-01T13:40:44;35.83;;;15.38;;
68507;SDS011;55510;49.560;19.090;2023-02-01T13:44:14;28.00;;;11.60;;
68507;SDS011;55510;49.560;19.090;2023-02-01T13:53:33;24.80;;;12.63;;
68507;SDS011;55510;49.560;19.090;2023-02-01T13:56:40;22.05;;;9.90;;
68507;SDS011;55510;49.560;19.090;2023-02-01T14:02:46;27.10;;;10.87;;
68507;SDS011;55510;49.560;19.090;2023-02-01T14:09:09;23.88;;;10.00;;
68507;SDS011;55510;49.560;19.090;2023-02-01T14:19:03;11.05;;;4.20;;
68507;SDS011;55510;49.560;19.090;2023-02-01T14:25:26;20.03;;;8.43;;
68507;SDS011;55510;49.560;19.090;2023-02-01T14:28:35;22.33;;;7.97;;
68507;SDS011;55510;49.560;19.090;2023-02-01T14:35:17;10.82;;;3.45;;
68507;SDS011;55510;49.560;19.090;2023-02-01T14:38:24;11.00;;;4.22;;
68507;SDS011;55510;49.560;19.090;2023-02-01T14:41:31;5.93;;;1.90;;
68507;SDS011;55510;49.560;19.090;2023-02-01T14:44:34;10.10;;;4.28;;
68507;SDS011;55510;49.560;19.090;2023-02-01T14:47:36;12.30;;;4.88;;
68507;SDS011;55510;49.560;19.090;2023-02-01T14:50:37;45.93;;;14.37;;
68507;SDS011;55510;49.560;19.090;2023-02-01T14:53:41;27.52;;;11.40;;
68507;SDS011;55510;49.560;19.090;2023-02-01T14:56:44;17.13;;;7.93;;
68507;SDS011;55510;49.560;19.090;2023-02-01T14:59:45;31.75;;;9.55;;
68507;SDS011;55510;49.560;19.090;2023-02-01T15:02:47;12.10;;;4.67;;
68507;SDS011;55510;49.560;19.090;2023-02-01T15:05:56;9.68;;;3.05;;
68507;SDS011;55510;49.560;19.090;2023-02-01T15:09:21;10.82;;;4.20;;
68507;SDS011;55510;49.560;19.090;2023-02-01T15:12:27;10.48;;;4.00;;
68507;SDS011;55510;49.560;19.090;2023-02-01T15:15:31;6.00;;;2.73;;
68507;SDS011;55510;49.560;19.090;2023-02-01T15:18:36;6.37;;;2.60;;
68507;SDS011;55510;49.560;19.090;2023-02-01T15:21:48;8.60;;;3.80;;
68507;SDS011;55510;49.560;19.090;2023-02-01T15:24:52;9.45;;;3.78;;
68507;SDS011;55510;49.560;19.090;2023-02-01T15:27:54;10.23;;;5.30;;
68507;SDS011;55510;49.560;19.090;2023-02-01T15:30:59;7.60;;;2.83;;
68507;SDS011;55510;49.560;19.090;2023-02-01T15:34:05;7.33;;;2.27;;
68507;SDS011;55510;49.560;19.090;2023-02-01T15:37:06;7.05;;;2.58;;
68507;SDS011;55510;49.560;19.090;2023-02-01T15:43:11;6.95;;;2.55;;
68507;SDS011;55510;49.560;19.090;2023-02-01T15:46:17;7.22;;;3.70;;
68507;SDS011;55510;49.560;19.090;2023-02-01T15:49:29;8.27;;;3.58;;
68507;SDS011;55510;49.560;19.090;2023-02-01T15:52:39;7.70;;;3.47;;
68507;SDS011;55510;49.560;19.090;2023-02-01T15:55:41;6.77;;;3.70;;
68507;SDS011;55510;49.560;19.090;2023-02-01T15:58:44;30.25;;;10.27;;
68507;SDS011;55510;49.560;19.090;2023-02-01T16:01:48;20.83;;;7.78;;
68507;SDS011;55510;49.560;19.090;2023-02-01T16:04:51;13.75;;;5.50;;
68507;SDS011;55510;49.560;19.090;2023-02-01T16:11:32;24.85;;;10.88;;
68507;SDS011;55510;49.560;19.090;2023-02-01T16:14:42;16.23;;;7.28;;
68507;SDS011;55510;49.560;19.090;2023-02-01T16:17:43;12.52;;;5.80;;
68507;SDS011;55510;49.560;19.090;2023-02-01T16:20:45;10.33;;;5.37;;
68507;SDS011;55510;49.560;19.090;2023-02-01T16:23:48;11.98;;;5.53;;
68507;SDS011;55510;49.560;19.090;2023-02-01T16:26:51;10.48;;;3.90;;
68507;SDS011;55510;49.560;19.090;2023-02-01T16:29:52;8.25;;;2.60;;
68507;SDS011;55510;49.560;19.090;2023-02-01T16:32:56;25.77;;;7.73;;
68507;SDS011;55510;49.560;19.090;2023-02-01T16:35:59;9.38;;;2.42;;
68507;SDS011;55510;49.560;19.090;2023-02-01T16:39:02;17.40;;;5.22;;
68507;SDS011;55510;49.560;19.090;2023-02-01T16:42:10;38.90;;;9.75;;
68507;SDS011;55510;49.560;19.090;2023-02-01T16:45:13;19.97;;;5.93;;
68507;SDS011;55510;49.560;19.090;2023-02-01T16:51:20;8.80;;;3.80;;
68507;SDS011;55510;49.560;19.090;2023-02-01T16:54:23;17.63;;;5.13;;
68507;SDS011;55510;49.560;19.090;2023-02-01T16:57:24;12.50;;;7.97;;
68507;SDS011;55510;49.560;19.090;2023-02-01T17:00:26;12.05;;;4.65;;
68507;SDS011;55510;49.560;19.090;2023-02-01T17:03:27;7.00;;;2.50;;
68507;SDS011;55510;49.560;19.090;2023-02-01T17:06:28;4.93;;;1.37;;
68507;SDS011;55510;49.560;19.090;2023-02-01T17:09:30;5.97;;;1.27;;
68507;SDS011;55510;49.560;19.090;2023-02-01T17:12:31;7.17;;;1.70;;
68507;SDS011;55510;49.560;19.090;2023-02-01T17:15:32;6.22;;;2.85;;
68507;SDS011;55510;49.560;19.090;2023-02-01T17:18:34;9.20;;;3.53;;
68507;SDS011;55510;49.560;19.090;2023-02-01T17:21:40;13.90;;;5.03;;
68507;SDS011;55510;49.560;19.090;2023-02-01T17:24:43;16.73;;;5.22;;
68507;SDS011;55510;49.560;19.090;2023-02-01T17:27:44;22.77;;;8.27;;
68507;SDS011;55510;49.560;19.090;2023-02-01T17:30:45;42.28;;;12.20;;
68507;SDS011;55510;49.560;19.090;2023-02-01T17:33:47;34.33;;;10.25;;
68507;SDS011;55510;49.560;19.090;2023-02-01T17:36:48;19.77;;;5.83;;
68507;SDS011;55510;49.560;19.090;2023-02-01T17:39:49;16.48;;;4.50;;
68507;SDS011;55510;49.560;19.090;2023-02-01T17:42:55;12.48;;;3.30;;
68507;SDS011;55510;49.560;19.090;2023-02-01T17:45:57;26.55;;;8.95;;
68507;SDS011;55510;49.560;19.090;2023-02-01T17:49:03;18.70;;;7.00;;
68507;SDS011;55510;49.560;19.090;2023-02-01T17:52:05;18.50;;;6.53;;
68507;SDS011;55510;49.560;19.090;2023-02-01T17:55:19;16.15;;;7.07;;
68507;SDS011;55510;49.560;19.090;2023-02-01T17:58:22;12.45;;;5.90;;
68507;SDS011;55510;49.560;19.090;2023-02-01T18:01:23;16.17;;;4.57;;
68507;SDS011;55510;49.560;19.090;2023-02-01T18:04:25;11.70;;;4.30;;
68507;SDS011;55510;49.560;19.090;2023-02-01T18:07:25;19.33;;;6.85;;
68507;SDS011;55510;49.560;19.090;2023-02-01T18:10:26;27.77;;;9.03;;
68507;SDS011;55510;49.560;19.090;2023-02-01T18:13:27;34.50;;;13.50;;
68507;SDS011;55510;49.560;19.090;2023-02-01T18:16:30;56.03;;;20.10;;
68507;SDS011;55510;49.560;19.090;2023-02-01T18:19:32;58.90;;;22.73;;
68507;SDS011;55510;49.560;19.090;2023-02-01T18:22:34;26.75;;;10.90;;
68507;SDS011;55510;49.560;19.090;2023-02-01T18:25:35;29.10;;;11.73;;
68507;SDS011;55510;49.560;19.090;2023-02-01T18:28:38;28.43;;;10.73;;
68507;SDS011;55510;49.560;19.090;2023-02-01T18:31:43;26.45;;;8.73;;
68507;SDS011;55510;49.560;19.090;2023-02-01T18:34:46;23.17;;;9.43;;
68507;SDS011;55510;49.560;19.090;2023-02-01T18:37:47;25.85;;;9.43;;
68507;SDS011;55510;49.560;19.090;2023-02-01T18:40:50;22.07;;;8.97;;
68507;SDS011;55510;49.560;19.090;2023-02-01T18:43:53;16.97;;;7.00;;
68507;SDS011;55510;49.560;19.090;2023-02-01T18:46:53;17.65;;;7.13;;
68507;SDS011;55510;49.560;19.090;2023-02-01T18:49:54;11.03;;;4.87;;
68507;SDS011;55510;49.560;19.090;2023-02-01T18:52:55;8.70;;;3.25;;
68507;SDS011;55510;49.560;19.090;2023-02-01T18:55:59;12.77;;;4.53;;
68507;SDS011;55510;49.560;19.090;2023-02-01T18:59:01;10.40;;;3.07;;
68507;SDS011;55510;49.560;19.090;2023-02-01T19:02:03;9.90;;;3.03;;
68507;SDS011;55510;49.560;19.090;2023-02-01T19:05:08;7.05;;;2.83;;
68507;SDS011;55510;49.560;19.090;2023-02-01T19:08:09;8.57;;;2.43;;
68507;SDS011;55510;49.560;19.090;2023-02-01T19:11:10;7.83;;;2.43;;
68507;SDS011;55510;49.560;19.090;2023-02-01T19:14:11;7.28;;;2.80;;
68507;SDS011;55510;49.560;19.090;2023-02-01T19:17:12;7.80;;;2.90;;
68507;SDS011;55510;49.560;19.090;2023-02-01T19:20:13;7.10;;;2.80;;
68507;SDS011;55510;49.560;19.090;2023-02-01T19:23:19;12.63;;;3.07;;
68507;SDS011;55510;49.560;19.090;2023-02-01T19:26:21;15.57;;;4.50;;
68507;SDS011;55510;49.560;19.090;2023-02-01T19:29:22;9.02;;;3.58;;
68507;SDS011;55510;49.560;19.090;2023-02-01T19:32:22;10.77;;;4.23;;
68507;SDS011;55510;49.560;19.090;2023-02-01T19:35:23;12.73;;;4.43;;
68507;SDS011;55510;49.560;19.090;2023-02-01T19:38:24;14.13;;;6.07;;
68507;SDS011;55510;49.560;19.090;2023-02-01T19:41:25;15.60;;;6.03;;
68507;SDS011;55510;49.560;19.090;2023-02-01T19:44:25;12.45;;;5.63;;
68507;SDS011;55510;49.560;19.090;2023-02-01T19:47:27;12.73;;;4.47;;
68507;SDS011;55510;49.560;19.090;2023-02-01T19:50:28;12.82;;;5.00;;
68507;SDS011;55510;49.560;19.090;2023-02-01T19:53:29;14.57;;;5.70;;
68507;SDS011;55510;49.560;19.090;2023-02-01T19:56:29;16.75;;;4.97;;
68507;SDS011;55510;49.560;19.090;2023-02-01T19:59:30;12.83;;;5.10;;
68507;SDS011;55510;49.560;19.090;2023-02-01T20:02:31;13.65;;;5.60;;
68507;SDS011;55510;49.560;19.090;2023-02-01T20:05:32;13.50;;;4.03;;
68507;SDS011;55510;49.560;19.090;2023-02-01T20:08:32;12.02;;;4.05;;
68507;SDS011;55510;49.560;19.090;2023-02-01T20:11:33;10.10;;;3.30;;
68507;SDS011;55510;49.560;19.090;2023-02-01T20:14:34;10.70;;;3.47;;
68507;SDS011;55510;49.560;19.090;2023-02-01T20:17:35;6.37;;;2.20;;
68507;SDS011;55510;49.560;19.090;2023-02-01T20:20:36;9.43;;;2.42;;
68507;SDS011;55510;49.560;19.090;2023-02-01T20:23:39;6.05;;;1.63;;
68507;SDS011;55510;49.560;19.090;2023-02-01T20:26:39;8.03;;;2.03;;
68507;SDS011;55510;49.560;19.090;2023-02-01T20:29:40;6.88;;;2.20;;
68507;SDS011;55510;49.560;19.090;2023-02-01T20:32:41;8.20;;;2.43;;
68507;SDS011;55510;49.560;19.090;2023-02-01T20:35:45;7.38;;;2.55;;
68507;SDS011;55510;49.560;19.090;2023-02-01T20:38:45;9.03;;;3.60;;
68507;SDS011;55510;49.560;19.090;2023-02-01T20:41:46;11.93;;;3.43;;
68507;SDS011;55510;49.560;19.090;2023-02-01T20:44:47;12.10;;;3.25;;
68507;SDS011;55510;49.560;19.090;2023-02-01T20:47:48;9.70;;;3.00;;
68507;SDS011;55510;49.560;19.090;2023-02-01T20:50:56;10.02;;;2.92;;
68507;SDS011;55510;49.560;19.090;2023-02-01T20:53:59;7.80;;;2.70;;
68507;SDS011;55510;49.560;19.090;2023-02-01T20:56:59;10.60;;;3.77;;
68507;SDS011;55510;49.560;19.090;2023-02-01T21:00:01;14.05;;;4.90;;
68507;SDS011;55510;49.560;19.090;2023-02-01T21:03:03;13.50;;;4.60;;
68507;SDS011;55510;49.560;19.090;2023-02-01T21:06:04;11.10;;;3.57;;
68507;SDS011;55510;49.560;19.090;2023-02-01T21:09:06;10.75;;;4.03;;
68507;SDS011;55510;49.560;19.090;2023-02-01T21:12:07;11.40;;;3.63;;
68507;SDS011;55510;49.560;19.090;2023-02-01T21:15:08;9.55;;;3.88;;
68507;SDS011;55510;49.560;19.090;2023-02-01T21:18:09;8.33;;;2.57;;
68507;SDS011;55510;49.560;19.090;2023-02-01T21:21:11;10.05;;;3.03;;
68507;SDS011;55510;49.560;19.090;2023-02-01T21:24:13;7.55;;;3.13;;
68507;SDS011;55510;49.560;19.090;2023-02-01T21:27:14;13.47;;;5.43;;
68507;SDS011;55510;49.560;19.090;2023-02-01T21:30:15;13.48;;;4.30;;
68507;SDS011;55510;49.560;19.090;2023-02-01T21:33:15;12.50;;;4.07;;
68507;SDS011;55510;49.560;19.090;2023-02-01T21:36:16;10.35;;;3.13;;
68507;SDS011;55510;49.560;19.090;2023-02-01T21:39:20;7.63;;;3.00;;
68507;SDS011;55510;49.560;19.090;2023-02-01T21:42:22;8.00;;;3.13;;
68507;SDS011;55510;49.560;19.090;2023-02-01T21:45:23;7.07;;;2.83;;
68507;SDS011;55510;49.560;19.090;2023-02-01T21:48:24;6.57;;;3.00;;
68507;SDS011;55510;49.560;19.090;2023-02-01T21:51:25;9.60;;;3.73;;
68507;SDS011;55510;49.560;19.090;2023-02-01T21:54:26;8.13;;;2.90;;
68507;SDS011;55510;49.560;19.090;2023-02-01T21:57:27;6.13;;;2.50;;
68507;SDS011;55510;49.560;19.090;2023-02-01T22:00:28;7.88;;;2.30;;
68507;SDS011;55510;49.560;19.090;2023-02-01T22:03:29;6.10;;;2.20;;
68507;SDS011;55510;49.560;19.090;2023-02-01T22:06:31;5.20;;;2.00;;
68507;SDS011;55510;49.560;19.090;2023-02-01T22:09:32;6.68;;;2.17;;
68507;SDS011;55510;49.560;19.090;2023-02-01T22:12:33;7.40;;;2.90;;
68507;SDS011;55510;49.560;19.090;2023-02-01T22:15:33;4.43;;;1.80;;
68507;SDS011;55510;49.560;19.090;2023-02-01T22:18:35;6.13;;;2.27;;
68507;SDS011;55510;49.560;19.090;2023-02-01T22:21:35;6.53;;;1.80;;
68507;SDS011;55510;49.560;19.090;2023-02-01T22:24:38;15.63;;;7.82;;
68507;SDS011;55510;49.560;19.090;2023-02-01T22:27:38;7.20;;;3.23;;
68507;SDS011;55510;49.560;19.090;2023-02-01T22:30:39;7.60;;;3.30;;
68507;SDS011;55510;49.560;19.090;2023-02-01T22:33:40;7.30;;;2.97;;
68507;SDS011;55510;49.560;19.090;2023-02-01T22:36:41;5.03;;;1.70;;
68507;SDS011;55510;49.560;19.090;2023-02-01T22:39:42;4.23;;;1.77;;
68507;SDS011;55510;49.560;19.090;2023-02-01T22:42:42;6.20;;;1.65;;
68507;SDS011;55510;49.560;19.090;2023-02-01T22:45:43;4.33;;;1.67;;
68507;SDS011;55510;49.560;19.090;2023-02-01T22:48:44;5.40;;;1.48;;
68507;SDS011;55510;49.560;19.090;2023-02-01T22:51:46;6.22;;;2.83;;
68507;SDS011;55510;49.560;19.090;2023-02-01T22:54:50;3.57;;;1.40;;
68507;SDS011;55510;49.560;19.090;2023-02-01T22:57:50;6.13;;;1.43;;
68507;SDS011;55510;49.560;19.090;2023-02-01T23:00:51;4.33;;;1.83;;
68507;SDS011;55510;49.560;19.090;2023-02-01T23:03:59;4.65;;;1.30;;
68507;SDS011;55510;49.560;19.090;2023-02-01T23:07:01;7.47;;;2.90;;
68507;SDS011;55510;49.560;19.090;2023-02-01T23:10:01;6.60;;;3.00;;
68507;SDS011;55510;49.560;19.090;2023-02-01T23:13:02;6.13;;;2.50;;
68507;SDS011;55510;49.560;19.090;2023-02-01T23:16:08;5.97;;;1.43;;
68507;SDS011;55510;49.560;19.090;2023-02-01T23:19:11;6.35;;;1.08;;
68507;SDS011;55510;49.560;19.090;2023-02-01T23:22:12;3.20;;;0.57;;
68507;SDS011;55510;49.560;19.090;2023-02-01T23:25:13;5.40;;;1.00;;
68507;SDS011;55510;49.560;19.090;2023-02-01T23:28:15;8.83;;;1.63;;
68507;SDS011;55510;49.560;19.090;2023-02-01T23:31:16;6.97;;;1.77;;
68507;SDS011;55510;49.560;19.090;2023-02-01T23:34:20;8.35;;;1.58;;
68507;SDS011;55510;49.560;19.090;2023-02-01T23:37:21;5.13;;;1.03;;
68507;SDS011;55510;49.560;19.090;2023-02-01T23:40:21;5.53;;;1.17;;
68507;SDS011;55510;49.560;19.090;2023-02-01T23:43:22;5.30;;;1.70;;
68507;SDS011;55510;49.560;19.090;2023-02-01T23:46:55;6.97;;;1.13;;
68507;SDS011;55510;49.560;19.090;2023-02-01T23:49:57;3.38;;;1.25;;
68507;SDS011;55510;49.560;19.090;2023-02-01T23:52:58;2.67;;;0.80;;
68507;SDS011;55510;49.560;19.090;2023-02-01T23:55:59;4.90;;;1.60;;
68507;SDS011;55510;49.560;19.090;2023-02-01T23:59:04;4.55;;;1.15;;
